Time;durP1;ratioP1;P1;durP2;ratioP2;P2;SDS_P1;SDS_P2;PMS_P1;PMS_P2;Temp;Humidity;BMP_temperature;BMP_pressure;BME280_temperature;BME280_humidity;BME280_pressure;Samples;Min_cycle;Max_cycle;Signal;HPM_P1;HPM_P2
2022/05/01 00:01:41;;;;;;;16.88;11.65;;;;;;;;;;5121817;28;20053;-83
2022/05/01 00:04:08;;;;;;;18.83;11.70;;;;;;;;;;5127762;28;20031;-81
2022/05/01 00:06:34;;;;;;;20.60;10.82;;;;;;;;;;5135412;28;20043;-82
2022/05/01 00:09:00;;;;;;;14.90;10.23;;;;;;;;;;5135642;28;20015;-83
2022/05/01 00:11:28;;;;;;;13.95;10.65;;;;;;;;;;5109100;28;20047;-81
2022/05/01 00:13:54;;;;;;;18.83;11.75;;;;;;;;;;5111412;28;20051;-82
2022/05/01 00:16:20;;;;;;;16.45;11.32;;;;;;;;;;5106521;28;20037;-81
2022/05/01 00:18:46;;;;;;;18.42;11.43;;;;;;;;;;5129484;28;20024;-82
2022/05/01 00:21:12;;;;;;;15.82;11.25;;;;;;;;;;5109119;28;20036;-82
2022/05/01 00:23:38;;;;;;;21.80;12.52;;;;;;;;;;5112761;28;20043;-82
2022/05/01 00:26:06;;;;;;;13.60;10.00;;;;;;;;;;5100189;28;20167;-82
2022/05/01 00:28:33;;;;;;;16.23;10.50;;;;;;;;;;5108737;28;20031;-81
2022/05/01 00:31:01;;;;;;;17.13;10.15;;;;;;;;;;5103627;28;20039;-81
2022/05/01 00:36:27;;;;;;;11.20;9.35;;;;;;;;;;5128056;28;20042;-81
2022/05/01 00:38:54;;;;;;;15.82;10.40;;;;;;;;;;5127631;28;20034;-81
2022/05/01 00:41:21;;;;;;;12.68;10.05;;;;;;;;;;5130322;28;20024;-81
2022/05/01 00:44:03;;;;;;;12.25;9.00;;;;;;;;;;5127305;28;20039;-82
2022/05/01 00:46:29;;;;;;;14.38;9.32;;;;;;;;;;5131427;28;20032;-82
2022/05/01 00:48:55;;;;;;;13.05;10.57;;;;;;;;;;5116248;28;20046;-82
2022/05/01 00:51:22;;;;;;;14.60;9.88;;;;;;;;;;5114274;28;20648;-81
2022/05/01 00:53:48;;;;;;;13.93;10.38;;;;;;;;;;5131804;28;20016;-82
2022/05/01 00:56:16;;;;;;;14.13;9.98;;;;;;;;;;5121968;28;20441;-82
2022/05/01 00:58:44;;;;;;;17.15;10.82;;;;;;;;;;5133380;28;20075;-81
2022/05/01 01:01:11;;;;;;;11.60;9.25;;;;;;;;;;5130427;28;20042;-82
2022/05/01 01:03:37;;;;;;;12.32;9.50;;;;;;;;;;5126170;28;20032;-81
2022/05/01 01:06:03;;;;;;;15.15;10.38;;;;;;;;;;5098491;28;20036;-82
2022/05/01 01:08:29;;;;;;;15.55;9.88;;;;;;;;;;5131322;28;20012;-82
2022/05/01 01:10:55;;;;;;;16.33;10.90;;;;;;;;;;5111012;28;20066;-82
2022/05/01 01:13:28;;;;;;;14.27;9.95;;;;;;;;;;5112398;28;20028;-81
2022/05/01 01:15:55;;;;;;;18.52;10.90;;;;;;;;;;5130432;28;20032;-82
2022/05/01 01:18:21;;;;;;;14.50;11.85;;;;;;;;;;5109996;28;20088;-81
2022/05/01 01:20:47;;;;;;;18.20;11.52;;;;;;;;;;5132799;28;20099;-81
2022/05/01 01:23:14;;;;;;;16.52;10.93;;;;;;;;;;5122553;28;20391;-82
2022/05/01 01:25:40;;;;;;;15.95;11.82;;;;;;;;;;5114105;28;20038;-81
2022/05/01 01:28:08;;;;;;;14.82;10.98;;;;;;;;;;5111053;28;20034;-81
2022/05/01 01:33:19;;;;;;;16.90;12.60;;;;;;;;;;5121760;28;20070;-82
2022/05/01 01:35:46;;;;;;;15.45;11.00;;;;;;;;;;5133806;28;20034;-82
2022/05/01 01:38:12;;;;;;;15.57;11.13;;;;;;;;;;5133309;28;20027;-81
2022/05/01 01:40:40;;;;;;;15.10;12.20;;;;;;;;;;5116260;28;20073;-82
2022/05/01 01:43:07;;;;;;;15.77;11.50;;;;;;;;;;5131499;28;20314;-81
2022/05/01 01:45:33;;;;;;;17.33;11.50;;;;;;;;;;5129084;28;20031;-82
2022/05/01 01:48:10;;;;;;;14.63;11.07;;;;;;;;;;5135578;28;20028;-82
2022/05/01 01:50:36;;;;;;;12.40;9.82;;;;;;;;;;5133023;28;20043;-81
2022/05/01 01:53:02;;;;;;;16.02;11.02;;;;;;;;;;5130848;28;20031;-81
2022/05/01 01:55:28;;;;;;;16.58;10.68;;;;;;;;;;5132423;28;20024;-81
2022/05/01 01:57:54;;;;;;;19.33;11.18;;;;;;;;;;5132605;28;20040;-82
2022/05/01 02:00:20;;;;;;;14.63;10.27;;;;;;;;;;5131751;28;20039;-82
2022/05/01 02:02:46;;;;;;;16.30;11.88;;;;;;;;;;5132713;28;20123;-82
2022/05/01 02:05:12;;;;;;;15.10;10.88;;;;;;;;;;5133996;28;20039;-82
2022/05/01 02:07:40;;;;;;;14.05;11.10;;;;;;;;;;5135074;28;20015;-83
2022/05/01 02:10:06;;;;;;;13.95;10.60;;;;;;;;;;5109319;28;20098;-82
2022/05/01 02:12:33;;;;;;;18.92;12.07;;;;;;;;;;5115461;28;20036;-81
2022/05/01 02:15:00;;;;;;;16.05;10.93;;;;;;;;;;5136271;28;20015;-83
2022/05/01 02:17:26;;;;;;;14.70;10.88;;;;;;;;;;5132725;28;20035;-82
2022/05/01 02:19:52;;;;;;;14.55;11.15;;;;;;;;;;5114566;28;20055;-82
2022/05/01 02:22:21;;;;;;;13.55;10.85;;;;;;;;;;5130235;28;20039;-82
2022/05/01 02:24:48;;;;;;;14.60;10.85;;;;;;;;;;5124611;28;20063;-82
2022/05/01 02:27:14;;;;;;;14.45;10.60;;;;;;;;;;5113770;28;20039;-82
2022/05/01 02:29:42;;;;;;;16.90;10.95;;;;;;;;;;5112593;28;20027;-81
2022/05/01 02:32:08;;;;;;;14.82;10.70;;;;;;;;;;5129221;28;20044;-82
2022/05/01 02:34:34;;;;;;;18.88;11.90;;;;;;;;;;5126412;28;20032;-81
2022/05/01 02:37:00;;;;;;;15.02;10.95;;;;;;;;;;5127958;28;20034;-81
2022/05/01 02:39:26;;;;;;;14.38;10.85;;;;;;;;;;5090562;28;20046;-81
2022/05/01 02:41:52;;;;;;;14.82;11.48;;;;;;;;;;5127261;28;20069;-81
2022/05/01 02:44:18;;;;;;;15.93;10.90;;;;;;;;;;5124119;28;20031;-81
2022/05/01 02:46:45;;;;;;;17.63;11.13;;;;;;;;;;5118556;28;20058;-80
2022/05/01 02:49:11;;;;;;;17.27;12.05;;;;;;;;;;5122300;28;20028;-81
2022/05/01 02:51:37;;;;;;;16.38;11.65;;;;;;;;;;5123932;28;20036;-82
2022/05/01 02:54:04;;;;;;;17.08;12.88;;;;;;;;;;5093325;28;20023;-82
2022/05/01 02:56:30;;;;;;;24.45;13.95;;;;;;;;;;5115163;28;20012;-82
2022/05/01 02:59:00;;;;;;;16.63;12.30;;;;;;;;;;5123561;28;20072;-81
2022/05/01 03:01:29;;;;;;;16.48;12.00;;;;;;;;;;5120694;28;20046;-82
2022/05/01 03:03:55;;;;;;;16.02;12.15;;;;;;;;;;5110373;28;20028;-82
2022/05/01 03:06:21;;;;;;;21.60;13.02;;;;;;;;;;5115869;28;20040;-82
2022/05/01 03:08:47;;;;;;;17.38;11.95;;;;;;;;;;5133291;28;20027;-82
2022/05/01 03:11:13;;;;;;;17.98;12.30;;;;;;;;;;5120084;28;20078;-83
2022/05/01 03:13:40;;;;;;;16.98;13.02;;;;;;;;;;5103467;28;20031;-82
2022/05/01 03:16:06;;;;;;;16.77;12.25;;;;;;;;;;5095406;28;20096;-82
2022/05/01 03:24:01;;;;;;;15.23;12.15;;;;;;;;;;5129454;28;20045;-82
2022/05/01 03:26:27;;;;;;;15.55;12.68;;;;;;;;;;5133962;28;20040;-82
2022/05/01 03:28:53;;;;;;;20.00;11.93;;;;;;;;;;5110712;28;20130;-82
2022/05/01 03:31:20;;;;;;;16.65;12.35;;;;;;;;;;5114999;28;20028;-82
2022/05/01 03:33:46;;;;;;;15.48;11.70;;;;;;;;;;5128808;28;20079;-82
2022/05/01 03:36:12;;;;;;;17.50;12.77;;;;;;;;;;5096541;28;20040;-82
2022/05/01 03:38:40;;;;;;;15.63;11.18;;;;;;;;;;5122557;28;20076;-81
2022/05/01 03:41:07;;;;;;;21.40;12.75;;;;;;;;;;5127582;28;20031;-82
2022/05/01 03:43:33;;;;;;;17.15;12.23;;;;;;;;;;5126103;28;20047;-81
2022/05/01 03:46:00;;;;;;;22.55;14.52;;;;;;;;;;5118061;28;20027;-82
2022/05/01 03:48:26;;;;;;;22.05;14.75;;;;;;;;;;5124417;28;20035;-82
2022/05/01 03:50:53;;;;;;;23.23;16.58;;;;;;;;;;5122203;28;20031;-81
2022/05/01 03:53:19;;;;;;;27.48;19.10;;;;;;;;;;5126903;28;20035;-82
2022/05/01 03:55:46;;;;;;;33.00;20.17;;;;;;;;;;5122629;28;20038;-82
2022/05/01 03:58:13;;;;;;;28.17;16.50;;;;;;;;;;5109022;28;20049;-84
2022/05/01 04:00:39;;;;;;;25.45;16.60;;;;;;;;;;5107112;28;20055;-82
2022/05/01 04:03:06;;;;;;;28.35;16.80;;;;;;;;;;5119959;28;20062;-82
2022/05/01 04:05:35;;;;;;;28.25;17.17;;;;;;;;;;5121578;28;20031;-82
2022/05/01 04:08:01;;;;;;;23.83;16.65;;;;;;;;;;5129166;28;20077;-82
2022/05/01 04:10:27;;;;;;;20.85;15.90;;;;;;;;;;5109088;28;20067;-81
2022/05/01 04:12:53;;;;;;;21.52;14.60;;;;;;;;;;5123206;28;20032;-81
2022/05/01 04:15:19;;;;;;;21.50;14.15;;;;;;;;;;5108229;28;20062;-82
2022/05/01 04:17:45;;;;;;;22.77;15.73;;;;;;;;;;5114944;28;20032;-81
2022/05/01 04:20:13;;;;;;;22.52;15.05;;;;;;;;;;5127832;28;20031;-82
2022/05/01 04:22:39;;;;;;;18.60;14.05;;;;;;;;;;5131649;28;20023;-80
2022/05/01 04:25:06;;;;;;;22.60;14.32;;;;;;;;;;5129042;28;20630;-81
2022/05/01 04:27:32;;;;;;;20.58;14.25;;;;;;;;;;5126054;28;20027;-80
2022/05/01 04:29:58;;;;;;;19.00;14.00;;;;;;;;;;5129230;28;20089;-81
2022/05/01 04:32:24;;;;;;;20.00;14.93;;;;;;;;;;5129904;28;20036;-80
2022/05/01 04:34:51;;;;;;;18.58;13.88;;;;;;;;;;5109560;28;20054;-81
2022/05/01 04:37:17;;;;;;;17.45;13.38;;;;;;;;;;5113886;28;20024;-81
2022/05/01 04:39:43;;;;;;;20.55;14.75;;;;;;;;;;5112419;28;20032;-81
2022/05/01 04:42:09;;;;;;;22.33;15.95;;;;;;;;;;5129247;28;20036;-82
2022/05/01 04:44:35;;;;;;;24.65;15.02;;;;;;;;;;5129296;28;20029;-81
2022/05/01 04:47:01;;;;;;;21.92;14.00;;;;;;;;;;5126533;28;20028;-81
2022/05/01 04:49:29;;;;;;;19.98;14.30;;;;;;;;;;5129051;28;20032;-81
2022/05/01 04:51:55;;;;;;;22.58;15.20;;;;;;;;;;5127758;28;20031;-82
2022/05/01 04:54:21;;;;;;;20.65;15.32;;;;;;;;;;5131575;28;20048;-81
2022/05/01 04:57:07;;;;;;;22.40;15.48;;;;;;;;;;5127906;28;20035;-82
2022/05/01 04:59:33;;;;;;;23.10;16.73;;;;;;;;;;5132721;28;20107;-83
2022/05/01 05:02:00;;;;;;;18.85;14.48;;;;;;;;;;5135119;27;20125;-82
2022/05/01 05:04:27;;;;;;;29.92;16.55;;;;;;;;;;5135785;28;20051;-81
2022/05/01 05:06:56;;;;;;;24.55;16.85;;;;;;;;;;5136140;27;20637;-82
2022/05/01 05:12:09;;;;;;;19.10;15.48;;;;;;;;;;5131776;27;20108;-82
2022/05/01 05:14:35;;;;;;;23.60;17.08;;;;;;;;;;5124376;28;20024;-81
2022/05/01 05:17:06;;;;;;;22.80;16.35;;;;;;;;;;5109643;28;20024;-81
2022/05/01 05:19:32;;;;;;;20.35;15.18;;;;;;;;;;5126820;28;20027;-81
2022/05/01 05:21:58;;;;;;;22.88;16.23;;;;;;;;;;5130385;27;20048;-81
2022/05/01 05:24:24;;;;;;;21.63;16.08;;;;;;;;;;5132508;28;20031;-81
2022/05/01 05:26:50;;;;;;;19.10;15.63;;;;;;;;;;5129554;27;20046;-81
2022/05/01 05:29:16;;;;;;;16.90;13.60;;;;;;;;;;5131995;28;20034;-81
2022/05/01 05:31:42;;;;;;;25.13;14.68;;;;;;;;;;5122321;27;20034;-81
2022/05/01 05:34:08;;;;;;;23.27;13.80;;;;;;;;;;5111485;27;20028;-82
2022/05/01 05:36:34;;;;;;;21.38;14.95;;;;;;;;;;5118014;27;20020;-81
2022/05/01 05:39:00;;;;;;;22.75;18.05;;;;;;;;;;5108330;28;20031;-81
2022/05/01 05:41:26;;;;;;;27.58;19.00;;;;;;;;;;5113843;27;20467;-81
2022/05/01 05:43:52;;;;;;;24.20;19.02;;;;;;;;;;5112965;27;20036;-81
2022/05/01 05:46:18;;;;;;;20.55;15.20;;;;;;;;;;5125741;27;20048;-81
2022/05/01 05:48:44;;;;;;;19.42;13.07;;;;;;;;;;5102410;28;20011;-81
2022/05/01 05:51:10;;;;;;;15.40;11.55;;;;;;;;;;5117875;28;20040;-81
2022/05/01 05:53:36;;;;;;;12.20;10.05;;;;;;;;;;5135010;27;20032;-81
2022/05/01 05:56:03;;;;;;;13.18;10.35;;;;;;;;;;5117996;28;20035;-81
2022/05/01 05:58:29;;;;;;;14.93;11.65;;;;;;;;;;5140682;27;20027;-82
2022/05/01 06:00:56;;;;;;;14.85;11.50;;;;;;;;;;5130619;27;20027;-81
2022/05/01 06:03:22;;;;;;;15.77;11.25;;;;;;;;;;5133427;27;20055;-80
2022/05/01 06:05:48;;;;;;;12.57;10.82;;;;;;;;;;5114974;27;20084;-82
2022/05/01 06:08:15;;;;;;;14.00;11.40;;;;;;;;;;5129357;27;20010;-82
2022/05/01 06:10:41;;;;;;;16.20;11.02;;;;;;;;;;5131541;28;20090;-80
2022/05/01 06:13:07;;;;;;;16.27;11.43;;;;;;;;;;5125814;27;20038;-78
2022/05/01 06:15:33;;;;;;;16.55;12.57;;;;;;;;;;5108296;28;20379;-78
2022/05/01 06:17:59;;;;;;;17.77;12.57;;;;;;;;;;5097949;28;20092;-82
2022/05/01 06:20:26;;;;;;;15.85;12.43;;;;;;;;;;5124722;28;20028;-82
2022/05/01 06:22:52;;;;;;;16.85;12.32;;;;;;;;;;5137483;27;20405;-83
2022/05/01 06:25:18;;;;;;;15.82;12.63;;;;;;;;;;5103539;28;20459;-81
2022/05/01 06:27:44;;;;;;;16.80;12.35;;;;;;;;;;5126076;27;20028;-81
2022/05/01 06:30:11;;;;;;;13.75;11.65;;;;;;;;;;5136760;27;20030;-80
2022/05/01 06:32:40;;;;;;;12.13;9.77;;;;;;;;;;5113611;28;20050;-79
2022/05/01 06:35:07;;;;;;;15.77;9.20;;;;;;;;;;5121224;27;20076;-80
2022/05/01 06:37:37;;;;;;;13.35;8.88;;;;;;;;;;5131842;27;20030;-82
2022/05/01 06:40:07;;;;;;;11.07;9.48;;;;;;;;;;5123433;27;20035;-83
2022/05/01 06:42:34;;;;;;;12.57;8.50;;;;;;;;;;5119351;28;20039;-81
2022/05/01 06:45:00;;;;;;;9.65;7.85;;;;;;;;;;5116386;27;20091;-73
2022/05/01 06:47:26;;;;;;;13.50;9.77;;;;;;;;;;5114951;28;20047;-74
2022/05/01 06:49:52;;;;;;;11.55;8.23;;;;;;;;;;5114341;27;20024;-80
2022/05/01 06:52:23;;;;;;;10.40;7.38;;;;;;;;;;5118932;28;20032;-79
2022/05/01 06:54:53;;;;;;;8.70;6.50;;;;;;;;;;5104186;28;20058;-79
2022/05/01 06:57:19;;;;;;;11.65;6.55;;;;;;;;;;5122746;28;20054;-83
2022/05/01 06:59:46;;;;;;;12.05;7.22;;;;;;;;;;5111573;27;20101;-86
2022/05/01 07:02:12;;;;;;;5.80;5.20;;;;;;;;;;5104292;28;20182;-86
2022/05/01 07:04:38;;;;;;;6.20;5.60;;;;;;;;;;5092820;28;20102;-81
2022/05/01 07:07:04;;;;;;;9.05;5.65;;;;;;;;;;5065678;28;20062;-84
2022/05/01 07:09:30;;;;;;;5.60;3.95;;;;;;;;;;5096202;28;20064;-82
2022/05/01 07:11:57;;;;;;;4.97;3.78;;;;;;;;;;5102666;28;20051;-78
2022/05/01 07:14:23;;;;;;;12.98;8.73;;;;;;;;;;5074231;28;20078;-75
2022/05/01 07:16:49;;;;;;;35.78;24.48;;;;;;;;;;5090831;28;20028;-78
2022/05/01 07:19:16;;;;;;;7.03;4.65;;;;;;;;;;5087017;28;20028;-79
2022/05/01 07:21:42;;;;;;;3.42;2.97;;;;;;;;;;5093549;28;20494;-79
2022/05/01 07:24:08;;;;;;;8.88;4.07;;;;;;;;;;5096400;28;20024;-81
2022/05/01 07:26:34;;;;;;;9.43;4.28;;;;;;;;;;5095496;28;20411;-80
2022/05/01 07:29:01;;;;;;;8.05;4.50;;;;;;;;;;5095955;28;20043;-80
2022/05/01 07:31:27;;;;;;;5.40;4.10;;;;;;;;;;5074028;28;20036;-79
2022/05/01 07:33:53;;;;;;;7.40;3.65;;;;;;;;;;5091884;28;20046;-81
2022/05/01 07:36:19;;;;;;;6.30;4.00;;;;;;;;;;5088210;28;20036;-79
2022/05/01 07:38:46;;;;;;;5.63;3.83;;;;;;;;;;5087119;28;20395;-79
2022/05/01 07:41:12;;;;;;;9.10;4.25;;;;;;;;;;5086842;28;20048;-78
2022/05/01 07:43:38;;;;;;;8.38;4.15;;;;;;;;;;5086964;28;20032;-79
2022/05/01 07:46:07;;;;;;;7.32;4.25;;;;;;;;;;5090633;28;20480;-79
2022/05/01 07:48:33;;;;;;;5.20;3.50;;;;;;;;;;5094706;28;20028;-82
2022/05/01 07:50:59;;;;;;;4.40;3.72;;;;;;;;;;5093483;28;20026;-80
2022/05/01 07:53:25;;;;;;;5.18;4.53;;;;;;;;;;5093079;28;20394;-79
2022/05/01 07:55:51;;;;;;;9.55;4.45;;;;;;;;;;5090592;28;20475;-79
2022/05/01 07:58:20;;;;;;;9.38;5.18;;;;;;;;;;5069926;28;20036;-79
2022/05/01 08:00:46;;;;;;;6.53;4.35;;;;;;;;;;5074035;28;20469;-82
2022/05/01 08:05:58;;;;;;;5.70;4.28;;;;;;;;;;5076684;28;20089;-83
2022/05/01 08:08:25;;;;;;;5.72;3.90;;;;;;;;;;5086029;28;20464;-81
2022/05/01 08:10:51;;;;;;;5.20;4.05;;;;;;;;;;5094386;28;20028;-79
2022/05/01 08:13:17;;;;;;;10.75;5.15;;;;;;;;;;5091238;28;20036;-77
2022/05/01 08:15:43;;;;;;;10.00;7.28;;;;;;;;;;5088104;28;20036;-77
2022/05/01 08:21:10;;;;;;;6.07;3.70;;;;;;;;;;5099093;28;20073;-80
2022/05/01 08:23:37;;;;;;;6.38;3.95;;;;;;;;;;5100647;28;20111;-78
2022/05/01 08:26:04;;;;;;;7.88;3.80;;;;;;;;;;5085698;28;20111;-83
2022/05/01 08:28:31;;;;;;;4.35;3.80;;;;;;;;;;5076836;28;20154;-79
2022/05/01 08:30:57;;;;;;;5.30;3.55;;;;;;;;;;5089643;28;20043;-78
2022/05/01 08:33:24;;;;;;;6.15;3.63;;;;;;;;;;5088750;28;20107;-72
2022/05/01 08:35:50;;;;;;;8.32;4.07;;;;;;;;;;5076746;28;20029;-74
2022/05/01 08:38:16;;;;;;;5.80;4.10;;;;;;;;;;5075764;28;20444;-74
2022/05/01 08:40:46;;;;;;;6.53;3.90;;;;;;;;;;5084619;28;20032;-77
2022/05/01 08:43:14;;;;;;;5.20;3.58;;;;;;;;;;5085869;28;20016;-74
2022/05/01 08:45:59;;;;;;;5.28;3.67;;;;;;;;;;5082370;28;20450;-75
2022/05/01 08:48:39;;;;;;;4.70;3.67;;;;;;;;;;5092075;28;20035;-76
2022/05/01 08:51:06;;;;;;;6.18;3.53;;;;;;;;;;5085897;28;20468;-79
2022/05/01 08:53:32;;;;;;;7.40;4.60;;;;;;;;;;5091266;28;20395;-76
2022/05/01 08:56:00;;;;;;;12.88;7.32;;;;;;;;;;5093708;28;20054;-76
2022/05/01 08:58:26;;;;;;;5.95;3.60;;;;;;;;;;5091839;28;20106;-77
2022/05/01 09:00:53;;;;;;;4.10;3.05;;;;;;;;;;5087123;28;20043;-74
2022/05/01 09:03:19;;;;;;;6.82;3.70;;;;;;;;;;5096943;28;20048;-73
2022/05/01 09:05:45;;;;;;;7.13;4.50;;;;;;;;;;5095100;28;20356;-74
2022/05/01 09:08:12;;;;;;;6.38;4.20;;;;;;;;;;5087559;28;20046;-76
2022/05/01 09:10:41;;;;;;;5.45;4.15;;;;;;;;;;5115508;28;20084;-76
2022/05/01 09:13:08;;;;;;;6.70;4.18;;;;;;;;;;5091934;28;20059;-77
2022/05/01 09:15:40;;;;;;;6.18;3.80;;;;;;;;;;5102830;28;20077;-77
2022/05/01 09:18:08;;;;;;;6.90;4.80;;;;;;;;;;5111986;28;20418;-77
2022/05/01 09:20:34;;;;;;;6.70;4.47;;;;;;;;;;5104631;28;20421;-77
2022/05/01 09:23:00;;;;;;;5.60;3.80;;;;;;;;;;5104017;28;20023;-76
2022/05/01 09:25:27;;;;;;;7.82;4.50;;;;;;;;;;5097472;28;20032;-77
2022/05/01 09:27:57;;;;;;;5.57;4.30;;;;;;;;;;5105399;28;20034;-76
2022/05/01 09:30:38;;;;;;;7.10;4.97;;;;;;;;;;5104485;28;20024;-76
2022/05/01 09:33:04;;;;;;;4.93;4.20;;;;;;;;;;5091356;28;20031;-76
2022/05/01 09:35:36;;;;;;;7.07;4.20;;;;;;;;;;5109745;28;20106;-75
2022/05/01 09:38:15;;;;;;;5.95;4.00;;;;;;;;;;5110883;28;20035;-76
2022/05/01 09:40:41;;;;;;;9.95;4.82;;;;;;;;;;5113027;28;20060;-79
2022/05/01 09:43:08;;;;;;;10.38;4.30;;;;;;;;;;5104576;28;20035;-76
2022/05/01 09:45:34;;;;;;;5.93;3.90;;;;;;;;;;5113156;28;20023;-76
2022/05/01 09:48:00;;;;;;;7.20;3.70;;;;;;;;;;5089433;28;20107;-76
2022/05/01 09:50:40;;;;;;;4.80;3.45;;;;;;;;;;5108804;28;20047;-76
2022/05/01 09:53:07;;;;;;;13.77;7.43;;;;;;;;;;5094468;28;20028;-76
2022/05/01 09:55:33;;;;;;;12.80;7.22;;;;;;;;;;5103147;28;20475;-75
2022/05/01 09:58:03;;;;;;;4.60;3.67;;;;;;;;;;5111343;28;20107;-74
2022/05/01 10:00:36;;;;;;;4.55;3.00;;;;;;;;;;5089441;28;20036;-74
2022/05/01 10:03:21;;;;;;;5.45;3.08;;;;;;;;;;5103526;28;20108;-74
2022/05/01 10:05:51;;;;;;;5.25;3.20;;;;;;;;;;5096465;28;20115;-73
2022/05/01 10:08:18;;;;;;;6.32;3.25;;;;;;;;;;5109796;28;20030;-73
2022/05/01 10:10:49;;;;;;;5.63;3.05;;;;;;;;;;5113992;28;20032;-73
2022/05/01 10:13:15;;;;;;;6.28;2.58;;;;;;;;;;5110315;28;20387;-73
2022/05/01 10:15:41;;;;;;;5.30;3.00;;;;;;;;;;5086415;28;20028;-73
2022/05/01 10:18:08;;;;;;;10.75;3.55;;;;;;;;;;5109053;28;20164;-74
2022/05/01 10:20:35;;;;;;;4.72;2.65;;;;;;;;;;5107190;28;20096;-73
2022/05/01 10:23:04;;;;;;;4.97;3.00;;;;;;;;;;5109458;28;20428;-73
2022/05/01 10:25:34;;;;;;;5.22;3.20;;;;;;;;;;5113178;28;20431;-73
2022/05/01 10:28:19;;;;;;;5.07;3.03;;;;;;;;;;5111266;28;20050;-73
2022/05/01 10:34:08;;;;;;;4.95;3.22;;;;;;;;;;5110389;27;20397;-74
2022/05/01 10:36:42;;;;;;;6.25;3.30;;;;;;;;;;5103313;28;20502;-74
2022/05/01 10:39:09;;;;;;;5.57;3.22;;;;;;;;;;5109709;28;20050;-75
2022/05/01 10:41:40;;;;;;;4.88;3.10;;;;;;;;;;5101241;28;20047;-74
2022/05/01 10:44:06;;;;;;;3.78;2.90;;;;;;;;;;5086623;28;20947;-74
2022/05/01 10:46:33;;;;;;;3.83;2.95;;;;;;;;;;5102152;28;20023;-75
2022/05/01 10:49:05;;;;;;;6.45;3.30;;;;;;;;;;5102239;28;20035;-74
2022/05/01 10:51:31;;;;;;;;;;;;;;;;;;5111564;28;20510;-73
2022/05/01 10:54:15;;;;;;;5.40;2.97;;;;;;;;;;5095902;28;19911;-74
2022/05/01 10:56:43;;;;;;;2.78;2.08;;;;;;;;;;5109691;28;20039;-74
2022/05/01 10:59:27;;;;;;;5.95;2.92;;;;;;;;;;5087541;28;22707;-74
2022/05/01 11:01:54;;;;;;;3.30;2.53;;;;;;;;;;5093169;28;20119;-77
2022/05/01 11:04:22;;;;;;;7.07;4.15;;;;;;;;;;5085965;28;20043;-75
2022/05/01 11:06:55;;;;;;;3.85;2.80;;;;;;;;;;5107655;28;20062;-75
2022/05/01 11:09:24;;;;;;;4.05;2.50;;;;;;;;;;5089704;28;20497;-74
2022/05/01 11:11:55;;;;;;;5.82;2.90;;;;;;;;;;5083654;28;20407;-74
2022/05/01 11:14:40;;;;;;;4.30;2.78;;;;;;;;;;5089211;28;20085;-74
2022/05/01 11:17:07;;;;;;;3.85;3.05;;;;;;;;;;5111998;28;20530;-74
2022/05/01 11:19:46;;;;;;;5.30;2.55;;;;;;;;;;5097319;28;20027;-74
2022/05/01 11:22:13;;;;;;;3.72;2.72;;;;;;;;;;5110459;28;20114;-73
2022/05/01 11:24:43;;;;;;;5.15;3.03;;;;;;;;;;5098267;28;20032;-74
2022/05/01 11:27:11;;;;;;;3.17;2.80;;;;;;;;;;5112253;28;20042;-74
2022/05/01 11:29:38;;;;;;;5.18;2.78;;;;;;;;;;5112321;28;20034;-74
2022/05/01 11:32:18;;;;;;;4.00;3.08;;;;;;;;;;5110832;28;20066;-74
2022/05/01 11:34:51;;;;;;;8.70;3.80;;;;;;;;;;5110613;28;20028;-75
2022/05/01 11:37:17;;;;;;;3.45;2.88;;;;;;;;;;5109532;28;20382;-74
2022/05/01 11:39:49;;;;;;;5.47;2.95;;;;;;;;;;5110500;28;20039;-75
2022/05/01 11:42:24;;;;;;;4.35;2.65;;;;;;;;;;5099712;28;20023;-74
2022/05/01 11:44:57;;;;;;;3.70;2.63;;;;;;;;;;5111814;28;20379;-74
2022/05/01 11:47:23;;;;;;;4.80;3.08;;;;;;;;;;5089750;28;20119;-74
2022/05/01 11:49:52;;;;;;;5.40;2.78;;;;;;;;;;5105268;28;20028;-74
2022/05/01 11:52:19;;;;;;;4.38;2.40;;;;;;;;;;5103829;28;20738;-75
2022/05/01 11:54:50;;;;;;;4.55;2.65;;;;;;;;;;5110862;28;20024;-75
2022/05/01 12:02:57;;;;;;;3.28;2.60;;;;;;;;;;5090820;28;20155;-75
2022/05/01 12:05:23;;;;;;;4.78;2.78;;;;;;;;;;5104308;28;20035;-75
2022/05/01 12:07:56;;;;;;;5.07;2.60;;;;;;;;;;5111330;28;20046;-76
2022/05/01 12:10:23;;;;;;;5.57;2.20;;;;;;;;;;5104147;28;20360;-75
2022/05/01 12:12:49;;;;;;;5.22;2.47;;;;;;;;;;5109537;28;20438;-75
2022/05/01 12:15:16;;;;;;;5.70;2.63;;;;;;;;;;5109080;28;20035;-75
2022/05/01 12:17:42;;;;;;;2.38;1.88;;;;;;;;;;5112184;28;20053;-75
2022/05/01 12:20:09;;;;;;;4.43;2.33;;;;;;;;;;5091124;28;20498;-75
2022/05/01 12:22:38;;;;;;;4.20;2.40;;;;;;;;;;5111839;28;20024;-75
2022/05/01 12:25:06;;;;;;;2.72;1.83;;;;;;;;;;5094286;28;20032;-75
2022/05/01 12:27:35;;;;;;;3.50;2.00;;;;;;;;;;5102757;28;20035;-75
2022/05/01 12:30:05;;;;;;;3.13;1.90;;;;;;;;;;5111373;28;20055;-75
2022/05/01 12:32:32;;;;;;;3.30;2.33;;;;;;;;;;5109760;28;20043;-74
2022/05/01 12:35:01;;;;;;;5.20;2.50;;;;;;;;;;5110906;28;20375;-75
2022/05/01 12:37:34;;;;;;;4.43;2.65;;;;;;;;;;5093976;28;20463;-75
2022/05/01 12:40:03;;;;;;;4.65;2.60;;;;;;;;;;5109568;28;20030;-75
2022/05/01 12:45:20;;;;;;;5.68;2.03;;;;;;;;;;5110937;28;20034;-74
2022/05/01 12:47:50;;;;;;;4.93;2.00;;;;;;;;;;5103452;28;20027;-75
2022/05/01 12:50:19;;;;;;;2.50;2.05;;;;;;;;;;5087972;28;20491;-75
2022/05/01 12:52:46;;;;;;;3.03;2.03;;;;;;;;;;5104079;28;20035;-74
2022/05/01 12:55:18;;;;;;;3.55;1.67;;;;;;;;;;5097224;28;20059;-75
2022/05/01 12:57:53;;;;;;;3.97;1.60;;;;;;;;;;5101995;28;20023;-75
2022/05/01 13:00:36;;;;;;;2.22;1.67;;;;;;;;;;5105099;28;20030;-75
2022/05/01 13:03:14;;;;;;;4.93;1.75;;;;;;;;;;5109640;28;20039;-76
2022/05/01 13:05:40;;;;;;;3.88;1.75;;;;;;;;;;5097102;28;20028;-76
2022/05/01 13:08:19;;;;;;;7.53;4.32;;;;;;;;;;5111140;28;20493;-76
2022/05/01 13:11:07;;;;;;;3.35;2.25;;;;;;;;;;5110525;28;20040;-77
2022/05/01 13:13:46;;;;;;;3.90;1.90;;;;;;;;;;5107443;28;20077;-74
2022/05/01 13:16:13;;;;;;;3.35;2.10;;;;;;;;;;5113454;28;20026;-73
2022/05/01 13:18:40;;;;;;;6.57;2.85;;;;;;;;;;5114904;28;20027;-73
2022/05/01 13:21:06;;;;;;;3.75;1.73;;;;;;;;;;5113398;28;20039;-74
2022/05/01 13:23:32;;;;;;;4.90;1.90;;;;;;;;;;5104397;28;20110;-74
2022/05/01 13:25:58;;;;;;;2.10;1.88;;;;;;;;;;5107107;28;20050;-75
2022/05/01 13:28:26;;;;;;;2.65;1.88;;;;;;;;;;5094151;28;20028;-74
2022/05/01 13:30:53;;;;;;;5.93;2.20;;;;;;;;;;5101749;28;20040;-74
2022/05/01 13:33:19;;;;;;;4.95;1.80;;;;;;;;;;5095982;28;20031;-74
2022/05/01 13:35:45;;;;;;;5.60;1.90;;;;;;;;;;5113252;28;20077;-73
2022/05/01 13:38:11;;;;;;;1.63;1.52;;;;;;;;;;5106957;28;20028;-77
2022/05/01 13:46:06;;;;;;;2.88;1.55;;;;;;;;;;5110048;28;20265;-77
2022/05/01 13:48:32;;;;;;;3.47;1.88;;;;;;;;;;5112748;28;20032;-77
2022/05/01 13:50:58;;;;;;;3.28;2.38;;;;;;;;;;5109481;28;20469;-76
2022/05/01 13:53:25;;;;;;;2.97;2.10;;;;;;;;;;5107852;28;20079;-74
2022/05/01 13:55:51;;;;;;;6.72;2.17;;;;;;;;;;5110626;27;20108;-74
2022/05/01 13:58:17;;;;;;;6.10;1.98;;;;;;;;;;5111575;28;20031;-74
2022/05/01 14:00:43;;;;;;;2.50;1.90;;;;;;;;;;5108652;28;20035;-74
2022/05/01 14:03:11;;;;;;;8.48;2.15;;;;;;;;;;5085120;28;20052;-74
2022/05/01 14:05:37;;;;;;;3.88;1.55;;;;;;;;;;5100903;28;20691;-74
2022/05/01 14:08:04;;;;;;;4.60;2.00;;;;;;;;;;5108154;28;20062;-75
2022/05/01 14:10:32;;;;;;;4.80;2.20;;;;;;;;;;5091840;28;20036;-75
2022/05/01 14:12:58;;;;;;;4.68;2.58;;;;;;;;;;5104902;28;20383;-75
2022/05/01 14:15:24;;;;;;;5.75;3.97;;;;;;;;;;5091368;28;20121;-74
2022/05/01 14:17:52;;;;;;;2.72;1.90;;;;;;;;;;5098560;28;20028;-74
2022/05/01 14:20:18;;;;;;;4.57;1.45;;;;;;;;;;5106934;28;20547;-75
2022/05/01 14:22:46;;;;;;;4.13;1.85;;;;;;;;;;5107734;28;20040;-75
2022/05/01 14:25:14;;;;;;;1.92;1.48;;;;;;;;;;5111456;28;20068;-74
2022/05/01 14:27:41;;;;;;;4.95;2.00;;;;;;;;;;5109679;28;20028;-74
2022/05/01 14:30:07;;;;;;;2.22;1.67;;;;;;;;;;5102152;28;20039;-74
2022/05/01 14:32:42;;;;;;;2.95;1.55;;;;;;;;;;5094181;28;20398;-74
2022/05/01 14:35:09;;;;;;;3.40;1.70;;;;;;;;;;5093470;28;20031;-74
2022/05/01 14:37:54;;;;;;;4.60;1.63;;;;;;;;;;5084046;28;20452;-74
2022/05/01 14:40:20;;;;;;;3.33;1.75;;;;;;;;;;5093017;28;20035;-74
2022/05/01 14:42:48;;;;;;;3.35;1.40;;;;;;;;;;5110395;28;20383;-74
2022/05/01 14:45:16;;;;;;;2.50;1.65;;;;;;;;;;5110167;28;20031;-74
2022/05/01 14:48:21;;;;;;;5.22;1.73;;;;;;;;;;5107985;28;20020;-74
2022/05/01 14:50:47;;;;;;;2.08;1.58;;;;;;;;;;5007072;28;20034;-74
2022/05/01 14:53:13;;;;;;;4.15;1.90;;;;;;;;;;5008573;28;20045;-74
2022/05/01 14:55:40;;;;;;;1.88;1.50;;;;;;;;;;5058167;28;20039;-74
2022/05/01 15:06:17;;;;;;;3.72;1.50;;;;;;;;;;5103843;28;20035;-74
2022/05/01 15:06:26;;;;;;;2.50;1.70;;;;;;;;;;5106931;28;20092;-73
2022/05/01 15:08:52;;;;;;;2.97;1.90;;;;;;;;;;5100343;28;20031;-74
2022/05/01 15:11:18;;;;;;;2.75;1.50;;;;;;;;;;5106970;28;20518;-74
2022/05/01 15:13:44;;;;;;;3.17;1.75;;;;;;;;;;5107985;28;20027;-74
2022/05/01 15:16:12;;;;;;;1.80;1.40;;;;;;;;;;5105604;28;20039;-75
2022/05/01 15:18:40;;;;;;;3.63;1.92;;;;;;;;;;5107143;28;20083;-74